sensor_id;sensor_type;location;lat;lon;timestamp;pressure;altitude;pressure_sealevel;temperature;humidity
75219;BME280;63801;49.414;19.474;2022-10-17T00:01:22;94932.41;;;10.26;73.41
75219;BME280;63801;49.414;19.474;2022-10-17T00:03:22;94938.09;;;10.24;73.29
75219;BME280;63801;49.414;19.474;2022-10-17T00:05:23;94943.66;;;10.19;73.51
75219;BME280;63801;49.414;19.474;2022-10-17T00:07:24;94944.91;;;10.13;73.42
75219;BME280;63801;49.414;19.474;2022-10-17T00:09:25;94934.28;;;10.08;73.48
75219;BME280;63801;49.414;19.474;2022-10-17T00:11:25;94940.25;;;10.05;73.57
75219;BME280;63801;49.414;19.474;2022-10-17T00:13:26;94943.09;;;10.00;74.03
75219;BME280;63801;49.414;19.474;2022-10-17T00:15:26;94938.19;;;9.93;74.03
75219;BME280;63801;49.414;19.474;2022-10-17T00:17:27;94936.44;;;9.89;73.87
75219;BME280;63801;49.414;19.474;2022-10-17T00:19:27;94934.41;;;9.86;73.66
75219;BME280;63801;49.414;19.474;2022-10-17T00:21:27;94942.28;;;9.82;73.93
75219;BME280;63801;49.414;19.474;2022-10-17T00:23:28;94940.56;;;9.78;73.89
75219;BME280;63801;49.414;19.474;2022-10-17T00:25:29;94937.38;;;9.76;73.88
75219;BME280;63801;49.414;19.474;2022-10-17T00:27:29;94935.47;;;9.68;73.96
75219;BME280;63801;49.414;19.474;2022-10-17T00:29:29;94939.09;;;9.72;73.84
75219;BME280;63801;49.414;19.474;2022-10-17T00:31:30;94949.38;;;9.70;73.85
75219;BME280;63801;49.414;19.474;2022-10-17T00:33:32;94940.06;;;9.67;74.03
75219;BME280;63801;49.414;19.474;2022-10-17T00:35:32;94945.44;;;9.67;74.02
75219;BME280;63801;49.414;19.474;2022-10-17T00:37:33;94939.56;;;9.65;73.88
75219;BME280;63801;49.414;19.474;2022-10-17T00:39:33;94939.88;;;9.64;73.97
75219;BME280;63801;49.414;19.474;2022-10-17T00:41:34;94939.09;;;9.63;74.46
75219;BME280;63801;49.414;19.474;2022-10-17T00:44:53;94950.66;;;9.64;74.20
75219;BME280;63801;49.414;19.474;2022-10-17T00:46:32;94952.06;;;9.61;74.26
75219;BME280;63801;49.414;19.474;2022-10-17T00:48:32;94948.09;;;9.59;74.30
75219;BME280;63801;49.414;19.474;2022-10-17T00:50:34;94934.94;;;9.57;74.33
75219;BME280;63801;49.414;19.474;2022-10-17T00:52:35;94925.09;;;9.44;74.68
75219;BME280;63801;49.414;19.474;2022-10-17T00:54:39;94943.94;;;9.53;74.53
75219;BME280;63801;49.414;19.474;2022-10-17T00:56:40;94940.00;;;9.50;74.65
75219;BME280;63801;49.414;19.474;2022-10-17T00:58:41;94939.84;;;9.46;74.54
75219;BME280;63801;49.414;19.474;2022-10-17T01:00:42;94945.81;;;9.43;74.35
75219;BME280;63801;49.414;19.474;2022-10-17T01:02:43;94945.34;;;9.41;74.35
75219;BME280;63801;49.414;19.474;2022-10-17T01:04:46;94944.84;;;9.39;74.48
75219;BME280;63801;49.414;19.474;2022-10-17T01:06:47;94941.69;;;9.37;74.49
75219;BME280;63801;49.414;19.474;2022-10-17T01:08:47;94944.69;;;9.36;74.30
75219;BME280;63801;49.414;19.474;2022-10-17T01:10:54;94943.44;;;9.33;74.74
75219;BME280;63801;49.414;19.474;2022-10-17T01:15:43;94935.97;;;9.30;74.81
75219;BME280;63801;49.414;19.474;2022-10-17T01:18:07;94946.56;;;9.27;74.60
75219;BME280;63801;49.414;19.474;2022-10-17T01:34:19;94929.06;;;9.07;74.74
75219;BME280;63801;49.414;19.474;2022-10-17T01:38:46;94926.00;;;9.00;74.97
75219;BME280;63801;49.414;19.474;2022-10-17T01:40:51;94931.22;;;8.96;74.85
75219;BME280;63801;49.414;19.474;2022-10-17T01:42:55;94932.63;;;8.94;74.95
75219;BME280;63801;49.414;19.474;2022-10-17T01:45:13;94928.66;;;8.91;74.89
75219;BME280;63801;49.414;19.474;2022-10-17T01:47:19;94929.75;;;8.90;74.97
75219;BME280;63801;49.414;19.474;2022-10-17T01:49:23;94925.13;;;8.82;75.55
75219;BME280;63801;49.414;19.474;2022-10-17T01:51:33;94938.78;;;8.94;75.81
75219;BME280;63801;49.414;19.474;2022-10-17T01:53:44;94934.88;;;9.00;75.50
75219;BME280;63801;49.414;19.474;2022-10-17T01:55:48;94920.75;;;8.95;75.48
75219;BME280;63801;49.414;19.474;2022-10-17T01:57:53;94946.78;;;9.08;75.39
75219;BME280;63801;49.414;19.474;2022-10-17T01:59:55;94935.72;;;9.10;75.29
75219;BME280;63801;49.414;19.474;2022-10-17T02:01:57;94932.22;;;9.09;75.10
75219;BME280;63801;49.414;19.474;2022-10-17T02:03:58;94924.63;;;9.02;75.09
75219;BME280;63801;49.414;19.474;2022-10-17T02:06:00;94927.16;;;9.08;75.25
75219;BME280;63801;49.414;19.474;2022-10-17T02:08:01;94939.63;;;9.03;75.19
75219;BME280;63801;49.414;19.474;2022-10-17T02:10:03;94923.56;;;8.90;75.02
75219;BME280;63801;49.414;19.474;2022-10-17T02:17:13;94940.47;;;8.82;75.39
75219;BME280;63801;49.414;19.474;2022-10-17T02:23:51;94935.84;;;8.51;76.25
75219;BME280;63801;49.414;19.474;2022-10-17T02:31:06;94937.50;;;8.25;77.46
75219;BME280;63801;49.414;19.474;2022-10-17T02:33:12;94936.66;;;8.16;77.38
75219;BME280;63801;49.414;19.474;2022-10-17T02:35:14;94942.03;;;8.16;77.08
75219;BME280;63801;49.414;19.474;2022-10-17T02:37:19;94948.81;;;8.13;76.83
75219;BME280;63801;49.414;19.474;2022-10-17T02:39:23;94943.44;;;8.13;76.82
75219;BME280;63801;49.414;19.474;2022-10-17T02:41:24;94949.91;;;8.12;76.75
75219;BME280;63801;49.414;19.474;2022-10-17T02:43:25;94943.72;;;8.12;76.90
75219;BME280;63801;49.414;19.474;2022-10-17T02:45:27;94945.31;;;8.13;76.96
75219;BME280;63801;49.414;19.474;2022-10-17T02:47:35;94942.94;;;8.11;77.37
75219;BME280;63801;49.414;19.474;2022-10-17T02:49:42;94944.34;;;8.09;76.80
75219;BME280;63801;49.414;19.474;2022-10-17T02:54:14;94952.97;;;8.06;77.08
75219;BME280;63801;49.414;19.474;2022-10-17T02:56:18;94955.47;;;8.02;77.41
75219;BME280;63801;49.414;19.474;2022-10-17T02:58:26;94937.22;;;7.91;77.20
75219;BME280;63801;49.414;19.474;2022-10-17T03:00:27;94936.44;;;7.90;77.34
75219;BME280;63801;49.414;19.474;2022-10-17T03:02:38;94951.22;;;7.88;77.42
75219;BME280;63801;49.414;19.474;2022-10-17T03:04:43;94950.75;;;7.86;77.20
75219;BME280;63801;49.414;19.474;2022-10-17T03:06:44;94955.94;;;7.82;77.19
75219;BME280;63801;49.414;19.474;2022-10-17T03:08:45;94961.59;;;7.81;77.11
75219;BME280;63801;49.414;19.474;2022-10-17T03:10:45;94956.50;;;7.79;77.24
75219;BME280;63801;49.414;19.474;2022-10-17T03:12:45;94952.56;;;7.77;77.69
75219;BME280;63801;49.414;19.474;2022-10-17T03:14:46;94949.69;;;7.73;77.50
75219;BME280;63801;49.414;19.474;2022-10-17T03:16:46;94954.25;;;7.73;77.53
75219;BME280;63801;49.414;19.474;2022-10-17T03:18:46;94961.22;;;7.74;77.44
75219;BME280;63801;49.414;19.474;2022-10-17T03:20:47;94963.91;;;7.74;77.98
75219;BME280;63801;49.414;19.474;2022-10-17T03:22:47;94962.31;;;7.73;77.21
75219;BME280;63801;49.414;19.474;2022-10-17T03:24:47;94944.03;;;7.61;77.25
75219;BME280;63801;49.414;19.474;2022-10-17T03:26:47;94966.06;;;7.72;77.37
75219;BME280;63801;49.414;19.474;2022-10-17T03:28:48;94966.06;;;7.72;77.26
75219;BME280;63801;49.414;19.474;2022-10-17T03:30:48;94964.63;;;7.65;77.26
75219;BME280;63801;49.414;19.474;2022-10-17T03:32:48;94980.28;;;7.72;77.38
75219;BME280;63801;49.414;19.474;2022-10-17T03:34:49;94976.81;;;7.72;77.04
75219;BME280;63801;49.414;19.474;2022-10-17T03:36:49;94977.63;;;7.72;77.13
75219;BME280;63801;49.414;19.474;2022-10-17T03:38:53;94979.50;;;7.72;77.41
75219;BME280;63801;49.414;19.474;2022-10-17T03:40:54;94982.69;;;7.74;77.32
75219;BME280;63801;49.414;19.474;2022-10-17T03:42:55;94984.25;;;7.75;77.33
75219;BME280;63801;49.414;19.474;2022-10-17T03:44:56;94982.09;;;7.77;77.16
75219;BME280;63801;49.414;19.474;2022-10-17T03:46:56;94979.41;;;7.77;77.28
75219;BME280;63801;49.414;19.474;2022-10-17T03:48:56;94985.56;;;7.77;77.52
75219;BME280;63801;49.414;19.474;2022-10-17T03:51:04;94988.25;;;7.77;77.40
75219;BME280;63801;49.414;19.474;2022-10-17T03:53:05;94980.81;;;7.74;77.41
75219;BME280;63801;49.414;19.474;2022-10-17T03:55:06;94983.78;;;7.73;77.53
75219;BME280;63801;49.414;19.474;2022-10-17T03:57:06;94981.69;;;7.70;77.31
75219;BME280;63801;49.414;19.474;2022-10-17T03:59:06;94965.59;;;7.56;77.23
75219;BME280;63801;49.414;19.474;2022-10-17T04:01:08;94988.75;;;7.65;77.41
75219;BME280;63801;49.414;19.474;2022-10-17T04:03:09;94995.78;;;7.61;77.67
75219;BME280;63801;49.414;19.474;2022-10-17T04:05:09;94994.22;;;7.60;77.71
75219;BME280;63801;49.414;19.474;2022-10-17T04:07:09;94975.94;;;7.49;77.62
75219;BME280;63801;49.414;19.474;2022-10-17T04:09:10;94982.69;;;7.46;77.55
75219;BME280;63801;49.414;19.474;2022-10-17T04:11:13;95002.84;;;7.57;77.40
75219;BME280;63801;49.414;19.474;2022-10-17T04:13:14;95002.84;;;7.57;77.53
75219;BME280;63801;49.414;19.474;2022-10-17T04:15:14;95006.66;;;7.56;77.64
75219;BME280;63801;49.414;19.474;2022-10-17T04:17:15;95007.41;;;7.57;77.50
75219;BME280;63801;49.414;19.474;2022-10-17T04:19:15;95001.88;;;7.53;77.59
75219;BME280;63801;49.414;19.474;2022-10-17T04:21:15;95003.97;;;7.56;77.87
75219;BME280;63801;49.414;19.474;2022-10-17T04:23:17;95008.22;;;7.57;77.67
75219;BME280;63801;49.414;19.474;2022-10-17T04:25:17;95009.03;;;7.58;77.57
75219;BME280;63801;49.414;19.474;2022-10-17T04:27:18;95014.69;;;7.56;77.42
75219;BME280;63801;49.414;19.474;2022-10-17T04:29:18;95010.91;;;7.57;77.56
75219;BME280;63801;49.414;19.474;2022-10-17T04:31:18;95016.78;;;7.59;77.66
75219;BME280;63801;49.414;19.474;2022-10-17T04:33:18;95006.75;;;7.51;77.73
75219;BME280;63801;49.414;19.474;2022-10-17T04:35:19;95018.94;;;7.57;78.18
75219;BME280;63801;49.414;19.474;2022-10-17T04:37:19;95020.56;;;7.58;77.62
75219;BME280;63801;49.414;19.474;2022-10-17T04:39:20;95014.69;;;7.56;77.72
75219;BME280;63801;49.414;19.474;2022-10-17T04:41:20;95017.38;;;7.56;77.17
75219;BME280;63801;49.414;19.474;2022-10-17T04:43:20;95007.84;;;7.50;77.65
75219;BME280;63801;49.414;19.474;2022-10-17T04:45:21;95008.03;;;7.54;77.99
75219;BME280;63801;49.414;19.474;2022-10-17T04:47:21;95006.44;;;7.53;77.92
75219;BME280;63801;49.414;19.474;2022-10-17T04:49:21;95012.13;;;7.51;78.29
75219;BME280;63801;49.414;19.474;2022-10-17T04:51:21;95006.25;;;7.49;78.47
75219;BME280;63801;49.414;19.474;2022-10-17T04:53:23;95012.69;;;7.48;78.11
75219;BME280;63801;49.414;19.474;2022-10-17T04:55:23;95014.59;;;7.48;78.41
75219;BME280;63801;49.414;19.474;2022-10-17T04:57:23;95011.13;;;7.47;78.11
75219;BME280;63801;49.414;19.474;2022-10-17T04:59:24;95009.25;;;7.48;78.02
75219;BME280;63801;49.414;19.474;2022-10-17T05:01:25;95010.00;;;7.48;78.03
75219;BME280;63801;49.414;19.474;2022-10-17T05:03:25;95015.88;;;7.50;78.03
75219;BME280;63801;49.414;19.474;2022-10-17T05:05:26;95016.38;;;7.52;78.04
75219;BME280;63801;49.414;19.474;2022-10-17T05:07:26;95017.38;;;7.56;78.04
75219;BME280;63801;49.414;19.474;2022-10-17T05:09:27;95014.09;;;7.59;78.20
75219;BME280;63801;49.414;19.474;2022-10-17T05:11:28;95008.63;;;7.64;78.15
75219;BME280;63801;49.414;19.474;2022-10-17T05:13:29;95014.28;;;7.77;78.80
75219;BME280;63801;49.414;19.474;2022-10-17T05:15:29;95014.75;;;7.92;78.39
75219;BME280;63801;49.414;19.474;2022-10-17T05:17:29;95023.50;;;8.11;79.14
75219;BME280;63801;49.414;19.474;2022-10-17T05:19:29;95021.28;;;8.27;78.74
75219;BME280;63801;49.414;19.474;2022-10-17T05:21:30;95030.53;;;8.48;78.64
75219;BME280;63801;49.414;19.474;2022-10-17T05:23:30;95027.47;;;8.64;78.64
75219;BME280;63801;49.414;19.474;2022-10-17T05:25:31;95032.31;;;8.75;78.46
75219;BME280;63801;49.414;19.474;2022-10-17T05:27:32;95028.34;;;8.95;78.67
75219;BME280;63801;49.414;19.474;2022-10-17T05:29:33;95029.16;;;9.26;78.87
75219;BME280;63801;49.414;19.474;2022-10-17T05:31:33;95036.47;;;9.65;78.64
75219;BME280;63801;49.414;19.474;2022-10-17T05:33:35;95027.09;;;9.93;77.56
75219;BME280;63801;49.414;19.474;2022-10-17T05:35:35;95036.72;;;10.25;76.47
75219;BME280;63801;49.414;19.474;2022-10-17T05:37:35;95037.53;;;10.52;75.48
75219;BME280;63801;49.414;19.474;2022-10-17T05:39:36;95035.50;;;10.83;75.78
75219;BME280;63801;49.414;19.474;2022-10-17T05:41:36;95038.81;;;11.14;75.27
75219;BME280;63801;49.414;19.474;2022-10-17T05:43:36;95041.88;;;11.51;74.47
75219;BME280;63801;49.414;19.474;2022-10-17T05:45:37;95038.34;;;11.85;74.24
75219;BME280;63801;49.414;19.474;2022-10-17T05:47:37;95038.59;;;12.30;74.36
75219;BME280;63801;49.414;19.474;2022-10-17T05:49:37;95049.84;;;12.82;74.26
75219;BME280;63801;49.414;19.474;2022-10-17T05:51:38;95045.91;;;13.33;73.81
75219;BME280;63801;49.414;19.474;2022-10-17T05:53:39;95041.53;;;13.85;73.44
75219;BME280;63801;49.414;19.474;2022-10-17T05:55:39;95045.06;;;14.34;72.54
75219;BME280;63801;49.414;19.474;2022-10-17T05:57:40;95048.91;;;14.82;72.16
75219;BME280;63801;49.414;19.474;2022-10-17T05:59:40;95052.94;;;15.28;71.31
75219;BME280;63801;49.414;19.474;2022-10-17T06:01:40;95054.56;;;15.72;70.50
75219;BME280;63801;49.414;19.474;2022-10-17T06:03:41;95061.09;;;16.15;69.54
75219;BME280;63801;49.414;19.474;2022-10-17T06:05:41;95061.31;;;16.57;68.41
75219;BME280;63801;49.414;19.474;2022-10-17T06:07:42;95063.41;;;16.95;67.91
75219;BME280;63801;49.414;19.474;2022-10-17T06:09:42;95068.00;;;17.29;66.58
75219;BME280;63801;49.414;19.474;2022-10-17T06:11:43;95065.97;;;17.61;66.90
75219;BME280;63801;49.414;19.474;2022-10-17T06:13:43;95055.56;;;17.89;66.57
75219;BME280;63801;49.414;19.474;2022-10-17T06:15:43;95071.06;;;18.27;65.48
75219;BME280;63801;49.414;19.474;2022-10-17T06:17:44;95063.47;;;18.63;65.12
75219;BME280;63801;49.414;19.474;2022-10-17T06:19:44;95070.50;;;18.90;64.82
75219;BME280;63801;49.414;19.474;2022-10-17T06:21:45;95064.09;;;19.05;61.69
75219;BME280;63801;49.414;19.474;2022-10-17T06:23:45;95064.69;;;19.21;60.78
75219;BME280;63801;49.414;19.474;2022-10-17T06:25:45;95069.59;;;19.39;61.24
75219;BME280;63801;49.414;19.474;2022-10-17T06:27:45;95080.13;;;19.66;61.23
75219;BME280;63801;49.414;19.474;2022-10-17T06:29:46;95075.34;;;19.93;60.17
75219;BME280;63801;49.414;19.474;2022-10-17T06:31:47;95071.78;;;20.26;60.15
75219;BME280;63801;49.414;19.474;2022-10-17T06:33:47;95076.06;;;20.68;59.75
75219;BME280;63801;49.414;19.474;2022-10-17T06:35:55;95074.34;;;21.00;58.21
75219;BME280;63801;49.414;19.474;2022-10-17T06:37:56;95078.81;;;21.22;57.24
75219;BME280;63801;49.414;19.474;2022-10-17T06:39:56;95092.28;;;21.48;56.04
75219;BME280;63801;49.414;19.474;2022-10-17T06:41:56;95084.19;;;21.84;56.08
75219;BME280;63801;49.414;19.474;2022-10-17T06:43:56;95092.50;;;22.05;55.64
75219;BME280;63801;49.414;19.474;2022-10-17T06:45:57;95092.19;;;22.38;54.73
75219;BME280;63801;49.414;19.474;2022-10-17T06:47:57;95093.03;;;22.78;53.51
75219;BME280;63801;49.414;19.474;2022-10-17T06:49:57;95093.41;;;23.12;52.15
75219;BME280;63801;49.414;19.474;2022-10-17T06:51:58;95094.94;;;23.45;50.82
75219;BME280;63801;49.414;19.474;2022-10-17T06:53:58;95090.13;;;23.70;50.10
75219;BME280;63801;49.414;19.474;2022-10-17T06:55:59;95097.13;;;23.92;49.51
75219;BME280;63801;49.414;19.474;2022-10-17T06:58:03;95094.59;;;24.26;47.67
75219;BME280;63801;49.414;19.474;2022-10-17T07:00:04;95094.44;;;24.54;46.88
75219;BME280;63801;49.414;19.474;2022-10-17T07:02:05;95088.72;;;24.79;45.87
75219;BME280;63801;49.414;19.474;2022-10-17T07:04:05;95093.69;;;25.02;45.65
75219;BME280;63801;49.414;19.474;2022-10-17T07:06:06;95103.72;;;25.23;44.97
75219;BME280;63801;49.414;19.474;2022-10-17T07:08:07;95097.69;;;25.38;44.61
75219;BME280;63801;49.414;19.474;2022-10-17T07:10:08;95106.94;;;25.59;44.33
75219;BME280;63801;49.414;19.474;2022-10-17T07:12:08;95104.03;;;25.73;43.43
75219;BME280;63801;49.414;19.474;2022-10-17T07:14:11;95108.56;;;25.90;42.19
75219;BME280;63801;49.414;19.474;2022-10-17T07:16:13;95116.78;;;25.97;41.48
75219;BME280;63801;49.414;19.474;2022-10-17T07:18:14;95113.81;;;26.11;40.85
75219;BME280;63801;49.414;19.474;2022-10-17T07:20:14;95112.16;;;26.21;40.19
75219;BME280;63801;49.414;19.474;2022-10-17T07:22:14;95112.38;;;26.33;39.89
75219;BME280;63801;49.414;19.474;2022-10-17T07:24:15;95111.09;;;26.42;39.52
75219;BME280;63801;49.414;19.474;2022-10-17T07:26:17;95116.41;;;26.56;39.14
75219;BME280;63801;49.414;19.474;2022-10-17T07:28:18;95105.44;;;26.49;39.39
75219;BME280;63801;49.414;19.474;2022-10-17T07:30:19;95110.59;;;26.47;38.80
75219;BME280;63801;49.414;19.474;2022-10-17T07:32:19;95117.97;;;26.57;39.21
75219;BME280;63801;49.414;19.474;2022-10-17T07:34:20;95124.81;;;26.75;39.28
75219;BME280;63801;49.414;19.474;2022-10-17T07:36:20;95123.63;;;27.03;37.96
75219;BME280;63801;49.414;19.474;2022-10-17T07:38:20;95110.63;;;27.23;37.89
75219;BME280;63801;49.414;19.474;2022-10-17T07:40:21;95117.41;;;27.42;37.56
75219;BME280;63801;49.414;19.474;2022-10-17T07:42:21;95110.38;;;27.38;37.40
75219;BME280;63801;49.414;19.474;2022-10-17T07:44:22;95116.16;;;27.23;37.01
75219;BME280;63801;49.414;19.474;2022-10-17T07:46:22;95115.19;;;27.34;36.93
75219;BME280;63801;49.414;19.474;2022-10-17T07:48:23;95119.59;;;27.54;36.92
75219;BME280;63801;49.414;19.474;2022-10-17T07:50:24;95117.69;;;27.71;36.82
75219;BME280;63801;49.414;19.474;2022-10-17T07:52:24;95130.00;;;27.90;36.57
75219;BME280;63801;49.414;19.474;2022-10-17T07:54:25;95113.50;;;28.02;35.54
75219;BME280;63801;49.414;19.474;2022-10-17T07:56:25;95117.66;;;28.14;35.28
75219;BME280;63801;49.414;19.474;2022-10-17T07:58:25;95119.41;;;28.24;35.19
75219;BME280;63801;49.414;19.474;2022-10-17T08:00:27;95120.41;;;28.34;35.12
75219;BME280;63801;49.414;19.474;2022-10-17T08:02:28;95113.94;;;28.40;34.71
75219;BME280;63801;49.414;19.474;2022-10-17T08:04:28;95116.22;;;28.45;35.11
75219;BME280;63801;49.414;19.474;2022-10-17T08:06:28;95119.59;;;28.53;34.86
75219;BME280;63801;49.414;19.474;2022-10-17T08:08:29;95121.50;;;28.56;35.18
75219;BME280;63801;49.414;19.474;2022-10-17T08:10:29;95115.25;;;28.52;34.83
75219;BME280;63801;49.414;19.474;2022-10-17T08:12:29;95118.72;;;28.56;35.04
75219;BME280;63801;49.414;19.474;2022-10-17T08:14:33;95112.06;;;28.53;35.13
75219;BME280;63801;49.414;19.474;2022-10-17T08:16:33;95114.56;;;28.64;34.73
75219;BME280;63801;49.414;19.474;2022-10-17T08:18:34;95119.63;;;28.69;34.55
75219;BME280;63801;49.414;19.474;2022-10-17T08:20:35;95115.16;;;28.75;34.68
75219;BME280;63801;49.414;19.474;2022-10-17T08:22:35;95114.78;;;28.73;34.75
75219;BME280;63801;49.414;19.474;2022-10-17T08:24:36;95114.56;;;28.84;34.63
75219;BME280;63801;49.414;19.474;2022-10-17T08:26:36;95119.50;;;28.92;34.80
75219;BME280;63801;49.414;19.474;2022-10-17T08:28:38;95117.25;;;29.03;34.73
75219;BME280;63801;49.414;19.474;2022-10-17T08:30:39;95114.56;;;29.16;34.74
75219;BME280;63801;49.414;19.474;2022-10-17T08:32:39;95120.19;;;29.13;34.43
75219;BME280;63801;49.414;19.474;2022-10-17T08:34:39;95125.22;;;29.18;34.58
75219;BME280;63801;49.414;19.474;2022-10-17T08:36:40;95113.44;;;29.30;34.25
75219;BME280;63801;49.414;19.474;2022-10-17T08:38:41;95116.56;;;29.16;33.98
75219;BME280;63801;49.414;19.474;2022-10-17T08:40:42;95120.81;;;29.04;33.58
75219;BME280;63801;49.414;19.474;2022-10-17T08:45:20;95121.97;;;27.76;33.78
75219;BME280;63801;49.414;19.474;2022-10-17T08:47:32;95121.34;;;27.21;34.14
75219;BME280;63801;49.414;19.474;2022-10-17T08:49:42;95110.84;;;26.59;35.29
75219;BME280;63801;49.414;19.474;2022-10-17T08:51:53;95109.72;;;26.26;35.72
75219;BME280;63801;49.414;19.474;2022-10-17T08:54:02;95120.31;;;26.31;36.43
75219;BME280;63801;49.414;19.474;2022-10-17T08:56:18;95113.66;;;26.25;36.09
75219;BME280;63801;49.414;19.474;2022-10-17T09:00:21;95124.41;;;25.86;36.22
75219;BME280;63801;49.414;19.474;2022-10-17T09:04:53;95116.63;;;24.92;37.70
75219;BME280;63801;49.414;19.474;2022-10-17T09:10:14;95109.38;;;23.77;39.63
75219;BME280;63801;49.414;19.474;2022-10-17T09:12:40;95114.59;;;23.33;40.21
75219;BME280;63801;49.414;19.474;2022-10-17T09:15:22;95122.47;;;22.88;40.97
75219;BME280;63801;49.414;19.474;2022-10-17T09:20:09;95109.47;;;22.50;41.82
75219;BME280;63801;49.414;19.474;2022-10-17T09:22:16;95124.38;;;22.38;42.11
75219;BME280;63801;49.414;19.474;2022-10-17T09:24:27;95112.59;;;22.34;42.53
75219;BME280;63801;49.414;19.474;2022-10-17T09:26:29;95122.41;;;22.35;42.54
75219;BME280;63801;49.414;19.474;2022-10-17T09:28:33;95118.88;;;22.31;42.49
75219;BME280;63801;49.414;19.474;2022-10-17T09:30:58;95114.56;;;22.30;42.55
75219;BME280;63801;49.414;19.474;2022-10-17T09:33:08;95108.66;;;22.21;42.17
75219;BME280;63801;49.414;19.474;2022-10-17T09:35:12;95108.59;;;22.03;42.71
75219;BME280;63801;49.414;19.474;2022-10-17T09:37:15;95127.41;;;21.94;42.99
75219;BME280;63801;49.414;19.474;2022-10-17T09:39:16;95132.03;;;21.83;43.46
75219;BME280;63801;49.414;19.474;2022-10-17T09:41:23;95113.59;;;21.80;43.86
75219;BME280;63801;49.414;19.474;2022-10-17T09:43:25;95103.41;;;21.87;43.58
75219;BME280;63801;49.414;19.474;2022-10-17T09:45:27;95117.13;;;21.80;42.51
75219;BME280;63801;49.414;19.474;2022-10-17T09:47:39;95123.69;;;21.58;42.78
75219;BME280;63801;49.414;19.474;2022-10-17T09:49:44;95125.53;;;21.36;42.99
75219;BME280;63801;49.414;19.474;2022-10-17T09:51:45;95101.53;;;21.23;43.62
75219;BME280;63801;49.414;19.474;2022-10-17T09:54:00;95101.94;;;21.25;43.66
75219;BME280;63801;49.414;19.474;2022-10-17T09:56:07;95123.88;;;21.25;44.33
75219;BME280;63801;49.414;19.474;2022-10-17T09:58:09;95116.44;;;21.22;43.98
75219;BME280;63801;49.414;19.474;2022-10-17T10:00:20;95101.84;;;21.11;43.74
75219;BME280;63801;49.414;19.474;2022-10-17T10:02:22;95105.81;;;21.17;43.50
75219;BME280;63801;49.414;19.474;2022-10-17T10:04:22;95094.47;;;21.18;43.63
75219;BME280;63801;49.414;19.474;2022-10-17T10:06:25;95115.25;;;21.19;44.43
75219;BME280;63801;49.414;19.474;2022-10-17T10:08:28;95109.75;;;21.19;44.29
75219;BME280;63801;49.414;19.474;2022-10-17T10:10:30;95115.97;;;21.13;43.91
75219;BME280;63801;49.414;19.474;2022-10-17T10:12:35;95109.97;;;21.00;44.22
75219;BME280;63801;49.414;19.474;2022-10-17T10:14:36;95105.16;;;20.83;44.76
75219;BME280;63801;49.414;19.474;2022-10-17T10:16:42;95109.09;;;20.85;44.59
75219;BME280;63801;49.414;19.474;2022-10-17T10:18:44;95116.97;;;20.90;44.80
75219;BME280;63801;49.414;19.474;2022-10-17T10:20:45;95119.31;;;20.88;45.05
75219;BME280;63801;49.414;19.474;2022-10-17T10:23:03;95116.50;;;20.81;44.75
75219;BME280;63801;49.414;19.474;2022-10-17T10:25:15;95112.25;;;20.87;45.05
75219;BME280;63801;49.414;19.474;2022-10-17T10:27:17;95117.78;;;20.98;44.80
75219;BME280;63801;49.414;19.474;2022-10-17T10:31:33;95115.91;;;21.05;44.74
75219;BME280;63801;49.414;19.474;2022-10-17T10:33:39;95115.13;;;21.08;44.84
75219;BME280;63801;49.414;19.474;2022-10-17T10:35:40;95099.09;;;21.11;44.52
75219;BME280;63801;49.414;19.474;2022-10-17T10:37:42;95119.53;;;21.17;44.18
75219;BME280;63801;49.414;19.474;2022-10-17T10:39:47;95123.44;;;21.16;44.46
75219;BME280;63801;49.414;19.474;2022-10-17T10:41:49;95112.03;;;21.10;44.72
75219;BME280;63801;49.414;19.474;2022-10-17T10:43:50;95108.84;;;21.04;45.22
75219;BME280;63801;49.414;19.474;2022-10-17T10:45:51;95113.16;;;21.05;45.04
75219;BME280;63801;49.414;19.474;2022-10-17T10:47:57;95104.88;;;20.98;44.96
75219;BME280;63801;49.414;19.474;2022-10-17T10:50:20;95106.88;;;21.01;45.11
75219;BME280;63801;49.414;19.474;2022-10-17T10:52:29;95106.44;;;20.99;45.42
75219;BME280;63801;49.414;19.474;2022-10-17T10:54:36;95106.13;;;21.08;45.14
75219;BME280;63801;49.414;19.474;2022-10-17T10:56:44;95101.41;;;21.08;44.87
75219;BME280;63801;49.414;19.474;2022-10-17T11:00:53;95094.25;;;20.93;44.98
75219;BME280;63801;49.414;19.474;2022-10-17T11:02:59;95111.53;;;20.97;44.81
75219;BME280;63801;49.414;19.474;2022-10-17T11:07:29;95107.56;;;20.91;45.07
75219;BME280;63801;49.414;19.474;2022-10-17T11:14:17;95111.28;;;21.17;45.24
75219;BME280;63801;49.414;19.474;2022-10-17T11:16:31;95110.97;;;21.29;45.46
75219;BME280;63801;49.414;19.474;2022-10-17T11:18:40;95100.81;;;21.33;45.03
75219;BME280;63801;49.414;19.474;2022-10-17T11:25:35;95104.81;;;21.46;44.42
75219;BME280;63801;49.414;19.474;2022-10-17T11:27:36;95103.59;;;21.40;44.40
75219;BME280;63801;49.414;19.474;2022-10-17T11:29:38;95109.91;;;21.47;44.83
75219;BME280;63801;49.414;19.474;2022-10-17T11:31:49;95105.63;;;21.50;44.94
75219;BME280;63801;49.414;19.474;2022-10-17T11:34:03;95102.47;;;21.48;44.59
75219;BME280;63801;49.414;19.474;2022-10-17T11:36:06;95098.94;;;21.47;44.53
75219;BME280;63801;49.414;19.474;2022-10-17T11:40:32;95103.63;;;21.47;45.01
75219;BME280;63801;49.414;19.474;2022-10-17T11:42:45;95098.91;;;21.40;44.40
75219;BME280;63801;49.414;19.474;2022-10-17T11:45:05;95087.84;;;21.30;44.07
75219;BME280;63801;49.414;19.474;2022-10-17T11:47:37;95097.63;;;21.24;44.86
75219;BME280;63801;49.414;19.474;2022-10-17T11:49:49;95095.69;;;21.28;44.85
75219;BME280;63801;49.414;19.474;2022-10-17T11:51:56;95087.06;;;21.29;44.71
75219;BME280;63801;49.414;19.474;2022-10-17T11:54:11;95081.56;;;21.26;44.78
75219;BME280;63801;49.414;19.474;2022-10-17T11:56:24;95091.03;;;21.32;44.76